Terminal Aerodrome Forecast
Issued by NWS Lake Charles, LA

Home | Current Version | Previous Version | Text Only | Print | Product List | Glossary On
Versions: 1 2 3 4 5 6 7 8 9 10 11 12 13 14 15 16 17 18 19
000
FTUS44 KLCH 171603 AAB
TAFAEX
TAF AMD
KAEX 171603Z 1716/1812 VRB05KT P6SM BKN004 OVC035
     FM171900 VRB03KT P6SM BKN008 OVC035
     FM180500 VRB05KT P6SM VCSH SCT025 OVC040
      TEMPO 1806/1809 4SM TSRA BR BKN016 BKN030CB=

USA.gov is the U.S. government's official web portal to all federal, state and local government web resources and services.